Terminal Aerodrome Forecast
Issued by NWS Brownsville, TX

Current Version | Previous Version | Text Only | Print | Product List | Glossary Off
Versions: 1 2 3 4 5 6 7 8 9 10 11 12 13

013
FTUS44 KBRO 220520
TAFBRO
TAF
KBRO 220520Z 2206/2306 16006KT P6SM SKC
     FM221500 16015G22KT P6SM FEW040
     FM230300 15010KT P6SM SKC=

USA.gov is the U.S. government's official web portal to all federal, state and local government web resources and services.